sensor_id;sensor_type;location;lat;lon;timestamp;P1;durP1;ratioP1;P2;durP2;ratioP2
8177;SDS011;4130;48.740;9.132;2023-10-09T00:02:16;8.53;;;2.67;;
8177;SDS011;4130;48.740;9.132;2023-10-09T00:04:44;7.80;;;2.90;;
8177;SDS011;4130;48.740;9.132;2023-10-09T00:07:11;9.20;;;2.90;;
8177;SDS011;4130;48.740;9.132;2023-10-09T00:09:42;6.70;;;2.70;;
8177;SDS011;4130;48.740;9.132;2023-10-09T00:12:15;7.80;;;2.80;;
8177;SDS011;4130;48.740;9.132;2023-10-09T00:14:49;6.83;;;2.73;;
8177;SDS011;4130;48.740;9.132;2023-10-09T00:17:20;5.93;;;2.87;;
8177;SDS011;4130;48.740;9.132;2023-10-09T00:19:49;5.33;;;2.70;;
8177;SDS011;4130;48.740;9.132;2023-10-09T00:22:19;6.70;;;2.90;;
8177;SDS011;4130;48.740;9.132;2023-10-09T00:24:54;6.23;;;2.83;;
8177;SDS011;4130;48.740;9.132;2023-10-09T00:27:37;5.70;;;2.27;;
8177;SDS011;4130;48.740;9.132;2023-10-09T00:30:10;9.10;;;2.90;;
8177;SDS011;4130;48.740;9.132;2023-10-09T00:32:40;6.47;;;2.67;;
8177;SDS011;4130;48.740;9.132;2023-10-09T00:35:15;5.00;;;2.17;;
8177;SDS011;4130;48.740;9.132;2023-10-09T00:37:59;8.37;;;2.77;;
8177;SDS011;4130;48.740;9.132;2023-10-09T00:40:32;4.70;;;2.63;;
8177;SDS011;4130;48.740;9.132;2023-10-09T00:43:03;2.63;;;1.83;;
8177;SDS011;4130;48.740;9.132;2023-10-09T00:45:38;6.93;;;2.73;;
8177;SDS011;4130;48.740;9.132;2023-10-09T00:48:09;7.73;;;2.90;;
8177;SDS011;4130;48.740;9.132;2023-10-09T00:50:39;5.13;;;3.13;;
8177;SDS011;4130;48.740;9.132;2023-10-09T00:53:15;4.80;;;2.37;;
8177;SDS011;4130;48.740;9.132;2023-10-09T00:55:43;7.43;;;2.70;;
8177;SDS011;4130;48.740;9.132;2023-10-09T01:11:50;6.77;;;2.60;;
8177;SDS011;4130;48.740;9.132;2023-10-09T01:14:29;5.47;;;2.83;;
8177;SDS011;4130;48.740;9.132;2023-10-09T01:17:01;3.83;;;2.43;;
8177;SDS011;4130;48.740;9.132;2023-10-09T01:19:33;6.60;;;2.83;;
8177;SDS011;4130;48.740;9.132;2023-10-09T01:22:00;3.77;;;2.23;;
8177;SDS011;4130;48.740;9.132;2023-10-09T01:27:58;7.60;;;2.50;;
8177;SDS011;4130;48.740;9.132;2023-10-09T01:30:27;4.63;;;2.60;;
8177;SDS011;4130;48.740;9.132;2023-10-09T01:32:59;6.30;;;2.90;;
8177;SDS011;4130;48.740;9.132;2023-10-09T01:39:09;5.77;;;2.57;;
8177;SDS011;4130;48.740;9.132;2023-10-09T01:41:48;5.83;;;2.87;;
8177;SDS011;4130;48.740;9.132;2023-10-09T01:44:18;6.60;;;2.50;;
8177;SDS011;4130;48.740;9.132;2023-10-09T01:46:47;5.73;;;2.30;;
8177;SDS011;4130;48.740;9.132;2023-10-09T01:49:17;5.47;;;2.90;;
8177;SDS011;4130;48.740;9.132;2023-10-09T01:51:48;6.33;;;2.63;;
8177;SDS011;4130;48.740;9.132;2023-10-09T01:54:16;6.13;;;2.67;;
8177;SDS011;4130;48.740;9.132;2023-10-09T01:56:59;9.60;;;2.70;;
8177;SDS011;4130;48.740;9.132;2023-10-09T01:59:32;5.50;;;2.30;;
8177;SDS011;4130;48.740;9.132;2023-10-09T02:02:03;4.80;;;2.33;;
8177;SDS011;4130;48.740;9.132;2023-10-09T02:04:39;4.40;;;2.40;;
8177;SDS011;4130;48.740;9.132;2023-10-09T02:07:07;8.10;;;2.80;;
8177;SDS011;4130;48.740;9.132;2023-10-09T02:09:35;5.53;;;2.63;;
8177;SDS011;4130;48.740;9.132;2023-10-09T02:12:10;6.07;;;2.63;;
8177;SDS011;4130;48.740;9.132;2023-10-09T02:14:40;8.13;;;3.00;;
8177;SDS011;4130;48.740;9.132;2023-10-09T02:17:10;8.70;;;2.80;;
8177;SDS011;4130;48.740;9.132;2023-10-09T02:19:43;6.63;;;2.47;;
8177;SDS011;4130;48.740;9.132;2023-10-09T02:22:15;7.07;;;3.17;;
8177;SDS011;4130;48.740;9.132;2023-10-09T02:24:48;6.20;;;2.50;;
8177;SDS011;4130;48.740;9.132;2023-10-09T02:27:24;7.97;;;2.67;;
8177;SDS011;4130;48.740;9.132;2023-10-09T02:30:14;8.67;;;2.43;;
8177;SDS011;4130;48.740;9.132;2023-10-09T02:32:51;8.70;;;3.17;;
8177;SDS011;4130;48.740;9.132;2023-10-09T02:35:31;6.30;;;2.70;;
8177;SDS011;4130;48.740;9.132;2023-10-09T02:38:04;6.03;;;2.67;;
8177;SDS011;4130;48.740;9.132;2023-10-09T02:40:39;4.40;;;2.00;;
8177;SDS011;4130;48.740;9.132;2023-10-09T02:43:26;6.53;;;2.80;;
8177;SDS011;4130;48.740;9.132;2023-10-09T02:46:00;7.90;;;2.67;;
8177;SDS011;4130;48.740;9.132;2023-10-09T02:48:38;5.73;;;2.40;;
8177;SDS011;4130;48.740;9.132;2023-10-09T02:51:08;7.10;;;2.43;;
8177;SDS011;4130;48.740;9.132;2023-10-09T02:53:57;7.13;;;3.17;;
8177;SDS011;4130;48.740;9.132;2023-10-09T02:56:32;8.20;;;2.50;;
8177;SDS011;4130;48.740;9.132;2023-10-09T02:59:03;7.27;;;2.70;;
8177;SDS011;4130;48.740;9.132;2023-10-09T03:01:33;5.97;;;2.27;;
8177;SDS011;4130;48.740;9.132;2023-10-09T03:04:02;4.93;;;2.00;;
8177;SDS011;4130;48.740;9.132;2023-10-09T03:06:31;4.80;;;2.50;;
8177;SDS011;4130;48.740;9.132;2023-10-09T03:09:00;11.83;;;3.37;;
8177;SDS011;4130;48.740;9.132;2023-10-09T03:11:41;7.63;;;2.40;;
8177;SDS011;4130;48.740;9.132;2023-10-09T03:14:09;5.63;;;2.23;;
8177;SDS011;4130;48.740;9.132;2023-10-09T03:16:38;6.20;;;2.57;;
8177;SDS011;4130;48.740;9.132;2023-10-09T03:19:05;9.77;;;2.63;;
8177;SDS011;4130;48.740;9.132;2023-10-09T03:21:35;4.37;;;2.20;;
8177;SDS011;4130;48.740;9.132;2023-10-09T03:24:03;3.67;;;2.27;;
8177;SDS011;4130;48.740;9.132;2023-10-09T03:26:31;4.90;;;2.67;;
8177;SDS011;4130;48.740;9.132;2023-10-09T03:28:58;7.60;;;2.50;;
8177;SDS011;4130;48.740;9.132;2023-10-09T03:31:27;10.13;;;2.70;;
8177;SDS011;4130;48.740;9.132;2023-10-09T03:33:57;4.80;;;2.27;;
8177;SDS011;4130;48.740;9.132;2023-10-09T03:36:24;8.57;;;2.80;;
8177;SDS011;4130;48.740;9.132;2023-10-09T03:38:53;6.00;;;2.43;;
8177;SDS011;4130;48.740;9.132;2023-10-09T03:41:23;6.63;;;2.50;;
8177;SDS011;4130;48.740;9.132;2023-10-09T03:43:51;4.87;;;2.60;;
8177;SDS011;4130;48.740;9.132;2023-10-09T03:46:19;5.23;;;2.87;;
8177;SDS011;4130;48.740;9.132;2023-10-09T03:48:51;5.63;;;2.37;;
8177;SDS011;4130;48.740;9.132;2023-10-09T03:51:23;7.00;;;2.70;;
8177;SDS011;4130;48.740;9.132;2023-10-09T03:53:51;6.87;;;2.50;;
8177;SDS011;4130;48.740;9.132;2023-10-09T03:56:19;4.53;;;2.33;;
8177;SDS011;4130;48.740;9.132;2023-10-09T03:58:47;6.80;;;2.63;;
8177;SDS011;4130;48.740;9.132;2023-10-09T04:01:15;8.57;;;2.43;;
8177;SDS011;4130;48.740;9.132;2023-10-09T04:03:48;7.67;;;2.50;;
8177;SDS011;4130;48.740;9.132;2023-10-09T04:06:15;6.03;;;2.37;;
8177;SDS011;4130;48.740;9.132;2023-10-09T04:08:44;4.67;;;2.33;;
8177;SDS011;4130;48.740;9.132;2023-10-09T04:11:14;5.97;;;3.07;;
8177;SDS011;4130;48.740;9.132;2023-10-09T04:13:41;7.57;;;2.37;;
8177;SDS011;4130;48.740;9.132;2023-10-09T04:16:11;7.43;;;2.43;;
8177;SDS011;4130;48.740;9.132;2023-10-09T04:18:58;5.53;;;2.07;;
8177;SDS011;4130;48.740;9.132;2023-10-09T04:21:30;5.37;;;2.40;;
8177;SDS011;4130;48.740;9.132;2023-10-09T04:24:01;6.80;;;2.50;;
8177;SDS011;4130;48.740;9.132;2023-10-09T04:26:46;7.23;;;3.07;;
8177;SDS011;4130;48.740;9.132;2023-10-09T04:29:13;8.07;;;3.77;;
8177;SDS011;4130;48.740;9.132;2023-10-09T04:31:49;13.90;;;4.57;;
8177;SDS011;4130;48.740;9.132;2023-10-09T04:34:17;6.10;;;2.50;;
8177;SDS011;4130;48.740;9.132;2023-10-09T04:37:00;8.87;;;2.83;;
8177;SDS011;4130;48.740;9.132;2023-10-09T04:39:46;7.57;;;2.80;;
8177;SDS011;4130;48.740;9.132;2023-10-09T04:42:15;5.53;;;2.47;;
8177;SDS011;4130;48.740;9.132;2023-10-09T04:44:59;5.13;;;2.33;;
8177;SDS011;4130;48.740;9.132;2023-10-09T04:47:45;7.17;;;2.60;;
8177;SDS011;4130;48.740;9.132;2023-10-09T04:50:23;8.60;;;2.67;;
8177;SDS011;4130;48.740;9.132;2023-10-09T04:53:12;6.03;;;2.67;;
8177;SDS011;4130;48.740;9.132;2023-10-09T04:55:51;6.13;;;3.23;;
8177;SDS011;4130;48.740;9.132;2023-10-09T04:58:22;5.83;;;2.73;;
8177;SDS011;4130;48.740;9.132;2023-10-09T05:00:50;10.77;;;3.33;;
8177;SDS011;4130;48.740;9.132;2023-10-09T05:03:38;7.23;;;3.10;;
8177;SDS011;4130;48.740;9.132;2023-10-09T05:06:21;9.27;;;3.27;;
8177;SDS011;4130;48.740;9.132;2023-10-09T05:09:19;3.67;;;2.50;;
8177;SDS011;4130;48.740;9.132;2023-10-09T05:11:49;7.83;;;2.43;;
8177;SDS011;4130;48.740;9.132;2023-10-09T05:14:33;9.20;;;2.90;;
8177;SDS011;4130;48.740;9.132;2023-10-09T05:17:12;9.73;;;2.30;;
8177;SDS011;4130;48.740;9.132;2023-10-09T05:19:42;6.30;;;2.60;;
8177;SDS011;4130;48.740;9.132;2023-10-09T05:22:20;5.50;;;2.57;;
8177;SDS011;4130;48.740;9.132;2023-10-09T05:25:01;6.70;;;2.57;;
8177;SDS011;4130;48.740;9.132;2023-10-09T05:27:41;6.70;;;2.80;;
8177;SDS011;4130;48.740;9.132;2023-10-09T05:30:15;8.93;;;2.67;;
8177;SDS011;4130;48.740;9.132;2023-10-09T05:32:55;10.13;;;2.60;;
8177;SDS011;4130;48.740;9.132;2023-10-09T05:35:23;7.00;;;2.23;;
8177;SDS011;4130;48.740;9.132;2023-10-09T05:38:06;5.93;;;2.13;;
8177;SDS011;4130;48.740;9.132;2023-10-09T05:40:48;6.17;;;2.50;;
8177;SDS011;4130;48.740;9.132;2023-10-09T05:43:20;7.47;;;2.83;;
8177;SDS011;4130;48.740;9.132;2023-10-09T05:46:04;4.13;;;1.83;;
8177;SDS011;4130;48.740;9.132;2023-10-09T05:48:35;6.57;;;2.20;;
8177;SDS011;4130;48.740;9.132;2023-10-09T05:51:21;5.10;;;2.40;;
8177;SDS011;4130;48.740;9.132;2023-10-09T05:54:05;6.07;;;2.03;;
8177;SDS011;4130;48.740;9.132;2023-10-09T05:56:49;6.00;;;2.17;;
8177;SDS011;4130;48.740;9.132;2023-10-09T05:59:35;9.07;;;2.20;;
8177;SDS011;4130;48.740;9.132;2023-10-09T06:02:19;5.73;;;2.13;;
8177;SDS011;4130;48.740;9.132;2023-10-09T06:05:04;4.13;;;2.30;;
8177;SDS011;4130;48.740;9.132;2023-10-09T06:07:51;5.73;;;2.73;;
8177;SDS011;4130;48.740;9.132;2023-10-09T06:10:31;8.63;;;2.17;;
8177;SDS011;4130;48.740;9.132;2023-10-09T06:13:05;5.03;;;2.20;;
8177;SDS011;4130;48.740;9.132;2023-10-09T06:15:38;9.07;;;3.10;;
8177;SDS011;4130;48.740;9.132;2023-10-09T06:18:34;10.13;;;3.10;;
8177;SDS011;4130;48.740;9.132;2023-10-09T06:21:00;6.37;;;3.00;;
8177;SDS011;4130;48.740;9.132;2023-10-09T06:23:34;5.87;;;2.67;;
8177;SDS011;4130;48.740;9.132;2023-10-09T06:26:33;7.53;;;3.10;;
8177;SDS011;4130;48.740;9.132;2023-10-09T06:29:02;8.70;;;2.80;;
8177;SDS011;4130;48.740;9.132;2023-10-09T06:31:43;7.97;;;2.70;;
8177;SDS011;4130;48.740;9.132;2023-10-09T06:34:22;6.23;;;2.07;;
8177;SDS011;4130;48.740;9.132;2023-10-09T06:36:57;9.50;;;3.00;;
8177;SDS011;4130;48.740;9.132;2023-10-09T06:39:30;5.27;;;2.20;;
8177;SDS011;4130;48.740;9.132;2023-10-09T06:42:14;4.87;;;2.07;;
8177;SDS011;4130;48.740;9.132;2023-10-09T06:45:01;7.93;;;2.27;;
8177;SDS011;4130;48.740;9.132;2023-10-09T06:47:33;5.27;;;2.33;;
8177;SDS011;4130;48.740;9.132;2023-10-09T06:50:14;9.07;;;2.30;;
8177;SDS011;4130;48.740;9.132;2023-10-09T06:52:57;7.90;;;2.37;;
8177;SDS011;4130;48.740;9.132;2023-10-09T06:55:44;4.80;;;2.43;;
8177;SDS011;4130;48.740;9.132;2023-10-09T06:58:16;4.20;;;1.90;;
8177;SDS011;4130;48.740;9.132;2023-10-09T07:00:51;5.47;;;2.40;;
8177;SDS011;4130;48.740;9.132;2023-10-09T07:03:40;5.60;;;2.00;;
8177;SDS011;4130;48.740;9.132;2023-10-09T07:06:18;10.88;;;2.67;;
8177;SDS011;4130;48.740;9.132;2023-10-09T07:09:10;7.30;;;2.38;;
8177;SDS011;4130;48.740;9.132;2023-10-09T07:11:45;6.68;;;2.67;;
8177;SDS011;4130;48.740;9.132;2023-10-09T07:14:34;5.40;;;2.27;;
8177;SDS011;4130;48.740;9.132;2023-10-09T07:17:18;4.70;;;2.30;;
8177;SDS011;4130;48.740;9.132;2023-10-09T07:19:53;5.57;;;2.25;;
8177;SDS011;4130;48.740;9.132;2023-10-09T07:22:35;5.75;;;2.55;;
8177;SDS011;4130;48.740;9.132;2023-10-09T07:25:38;7.47;;;2.50;;
8177;SDS011;4130;48.740;9.132;2023-10-09T07:28:20;3.97;;;2.30;;
8177;SDS011;4130;48.740;9.132;2023-10-09T07:31:07;3.97;;;2.40;;
8177;SDS011;4130;48.740;9.132;2023-10-09T07:33:49;7.82;;;2.75;;
8177;SDS011;4130;48.740;9.132;2023-10-09T07:36:24;12.23;;;2.45;;
8177;SDS011;4130;48.740;9.132;2023-10-09T07:39:03;7.30;;;2.55;;
8177;SDS011;4130;48.740;9.132;2023-10-09T07:41:38;4.70;;;1.80;;
8177;SDS011;4130;48.740;9.132;2023-10-09T07:44:10;6.00;;;2.17;;
8177;SDS011;4130;48.740;9.132;2023-10-09T07:46:59;4.75;;;2.05;;
8177;SDS011;4130;48.740;9.132;2023-10-09T07:49:43;4.70;;;2.28;;
8177;SDS011;4130;48.740;9.132;2023-10-09T07:52:21;5.78;;;1.95;;
8177;SDS011;4130;48.740;9.132;2023-10-09T07:54:50;3.03;;;2.20;;
8177;SDS011;4130;48.740;9.132;2023-10-09T07:57:26;7.47;;;2.80;;
8177;SDS011;4130;48.740;9.132;2023-10-09T07:59:54;5.90;;;2.70;;
8177;SDS011;4130;48.740;9.132;2023-10-09T08:02:29;6.55;;;2.47;;
8177;SDS011;4130;48.740;9.132;2023-10-09T08:05:00;5.65;;;2.88;;
8177;SDS011;4130;48.740;9.132;2023-10-09T08:07:33;6.97;;;2.47;;
8177;SDS011;4130;48.740;9.132;2023-10-09T08:10:07;5.53;;;2.53;;
8177;SDS011;4130;48.740;9.132;2023-10-09T08:12:52;11.38;;;3.03;;
8177;SDS011;4130;48.740;9.132;2023-10-09T08:15:25;7.32;;;2.08;;
8177;SDS011;4130;48.740;9.132;2023-10-09T08:18:02;7.15;;;2.20;;
8177;SDS011;4130;48.740;9.132;2023-10-09T08:20:34;4.22;;;1.77;;
8177;SDS011;4130;48.740;9.132;2023-10-09T08:23:17;7.18;;;2.47;;
8177;SDS011;4130;48.740;9.132;2023-10-09T08:25:58;5.63;;;2.05;;
8177;SDS011;4130;48.740;9.132;2023-10-09T08:28:37;3.70;;;1.80;;
8177;SDS011;4130;48.740;9.132;2023-10-09T08:31:07;3.50;;;2.05;;
8177;SDS011;4130;48.740;9.132;2023-10-09T08:33:44;11.95;;;2.70;;
8177;SDS011;4130;48.740;9.132;2023-10-09T08:36:10;8.15;;;2.70;;
8177;SDS011;4130;48.740;9.132;2023-10-09T08:38:49;7.88;;;2.42;;
8177;SDS011;4130;48.740;9.132;2023-10-09T08:41:17;8.30;;;2.40;;
8177;SDS011;4130;48.740;9.132;2023-10-09T08:43:48;4.43;;;2.10;;
8177;SDS011;4130;48.740;9.132;2023-10-09T08:46:18;3.80;;;2.30;;
8177;SDS011;4130;48.740;9.132;2023-10-09T08:48:51;7.13;;;2.70;;
8177;SDS011;4130;48.740;9.132;2023-10-09T08:51:23;4.82;;;2.30;;
8177;SDS011;4130;48.740;9.132;2023-10-09T08:53:53;5.20;;;2.17;;
8177;SDS011;4130;48.740;9.132;2023-10-09T08:56:21;8.43;;;2.25;;
8177;SDS011;4130;48.740;9.132;2023-10-09T08:58:49;6.90;;;2.70;;
8177;SDS011;4130;48.740;9.132;2023-10-09T09:01:20;5.53;;;2.28;;
8177;SDS011;4130;48.740;9.132;2023-10-09T09:03:50;4.43;;;2.10;;
8177;SDS011;4130;48.740;9.132;2023-10-09T09:06:21;10.45;;;2.70;;
8177;SDS011;4130;48.740;9.132;2023-10-09T09:08:48;4.05;;;1.65;;
8177;SDS011;4130;48.740;9.132;2023-10-09T09:11:36;7.78;;;2.30;;
8177;SDS011;4130;48.740;9.132;2023-10-09T09:14:14;4.95;;;2.13;;
8177;SDS011;4130;48.740;9.132;2023-10-09T09:16:45;5.13;;;2.10;;
8177;SDS011;4130;48.740;9.132;2023-10-09T09:19:14;4.75;;;2.10;;
8177;SDS011;4130;48.740;9.132;2023-10-09T09:21:48;5.35;;;1.88;;
8177;SDS011;4130;48.740;9.132;2023-10-09T09:24:19;7.60;;;2.15;;
8177;SDS011;4130;48.740;9.132;2023-10-09T09:27:01;5.82;;;2.20;;
8177;SDS011;4130;48.740;9.132;2023-10-09T09:29:38;4.40;;;2.08;;
8177;SDS011;4130;48.740;9.132;2023-10-09T09:32:06;10.55;;;2.47;;
8177;SDS011;4130;48.740;9.132;2023-10-09T09:34:45;9.60;;;2.15;;
8177;SDS011;4130;48.740;9.132;2023-10-09T09:37:18;6.68;;;1.92;;
8177;SDS011;4130;48.740;9.132;2023-10-09T09:39:46;7.85;;;2.17;;
8177;SDS011;4130;48.740;9.132;2023-10-09T09:42:18;8.85;;;2.38;;
8177;SDS011;4130;48.740;9.132;2023-10-09T09:44:50;4.15;;;1.95;;
8177;SDS011;4130;48.740;9.132;2023-10-09T09:47:18;5.25;;;2.17;;
8177;SDS011;4130;48.740;9.132;2023-10-09T09:49:52;7.35;;;2.28;;
8177;SDS011;4130;48.740;9.132;2023-10-09T09:52:24;8.80;;;2.08;;
8177;SDS011;4130;48.740;9.132;2023-10-09T09:54:52;6.03;;;2.58;;
8177;SDS011;4130;48.740;9.132;2023-10-09T09:57:22;9.70;;;2.40;;
8177;SDS011;4130;48.740;9.132;2023-10-09T09:59:52;7.20;;;2.17;;
8177;SDS011;4130;48.740;9.132;2023-10-09T10:02:23;6.10;;;2.13;;
8177;SDS011;4130;48.740;9.132;2023-10-09T10:04:57;9.70;;;2.65;;
8177;SDS011;4130;48.740;9.132;2023-10-09T10:07:28;7.05;;;2.22;;
8177;SDS011;4130;48.740;9.132;2023-10-09T10:13:04;9.95;;;2.83;;
8177;SDS011;4130;48.740;9.132;2023-10-09T10:18:30;11.18;;;3.00;;
8177;SDS011;4130;48.740;9.132;2023-10-09T10:21:09;7.70;;;2.42;;
8177;SDS011;4130;48.740;9.132;2023-10-09T10:23:39;5.40;;;2.15;;
8177;SDS011;4130;48.740;9.132;2023-10-09T10:26:16;8.13;;;2.47;;
8177;SDS011;4130;48.740;9.132;2023-10-09T10:28:50;8.80;;;2.95;;
8177;SDS011;4130;48.740;9.132;2023-10-09T10:31:55;10.57;;;2.47;;
8177;SDS011;4130;48.740;9.132;2023-10-09T10:34:25;11.60;;;2.70;;
8177;SDS011;4130;48.740;9.132;2023-10-09T10:36:53;7.47;;;2.40;;
8177;SDS011;4130;48.740;9.132;2023-10-09T10:39:24;8.43;;;2.70;;
8177;SDS011;4130;48.740;9.132;2023-10-09T10:42:20;8.50;;;2.20;;
8177;SDS011;4130;48.740;9.132;2023-10-09T10:44:59;9.75;;;2.70;;
8177;SDS011;4130;48.740;9.132;2023-10-09T10:47:30;7.85;;;2.70;;
8177;SDS011;4130;48.740;9.132;2023-10-09T10:50:00;10.38;;;2.63;;
8177;SDS011;4130;48.740;9.132;2023-10-09T10:53:06;9.10;;;2.42;;
8177;SDS011;4130;48.740;9.132;2023-10-09T10:55:38;8.18;;;2.78;;
8177;SDS011;4130;48.740;9.132;2023-10-09T10:58:17;9.18;;;2.50;;
8177;SDS011;4130;48.740;9.132;2023-10-09T11:00:53;6.55;;;2.30;;
8177;SDS011;4130;48.740;9.132;2023-10-09T11:03:40;6.18;;;2.10;;
8177;SDS011;4130;48.740;9.132;2023-10-09T11:06:26;7.07;;;2.30;;
8177;SDS011;4130;48.740;9.132;2023-10-09T11:09:02;5.43;;;2.30;;
8177;SDS011;4130;48.740;9.132;2023-10-09T11:11:46;11.52;;;2.22;;
8177;SDS011;4130;48.740;9.132;2023-10-09T11:14:16;6.38;;;3.05;;
8177;SDS011;4130;48.740;9.132;2023-10-09T11:16:48;9.77;;;2.47;;
8177;SDS011;4130;48.740;9.132;2023-10-09T11:19:18;10.77;;;2.47;;
8177;SDS011;4130;48.740;9.132;2023-10-09T11:21:54;7.60;;;2.38;;
8177;SDS011;4130;48.740;9.132;2023-10-09T11:24:39;6.93;;;2.33;;
8177;SDS011;4130;48.740;9.132;2023-10-09T11:27:08;8.02;;;2.55;;
8177;SDS011;4130;48.740;9.132;2023-10-09T11:29:48;6.95;;;2.30;;
8177;SDS011;4130;48.740;9.132;2023-10-09T11:32:20;7.22;;;2.60;;
8177;SDS011;4130;48.740;9.132;2023-10-09T11:34:49;6.60;;;2.42;;
8177;SDS011;4130;48.740;9.132;2023-10-09T11:37:20;6.68;;;2.50;;
8177;SDS011;4130;48.740;9.132;2023-10-09T11:40:04;7.70;;;2.33;;
8177;SDS011;4130;48.740;9.132;2023-10-09T11:42:49;6.50;;;2.10;;
8177;SDS011;4130;48.740;9.132;2023-10-09T11:45:21;7.45;;;2.75;;
8177;SDS011;4130;48.740;9.132;2023-10-09T11:47:50;6.20;;;2.35;;
8177;SDS011;4130;48.740;9.132;2023-10-09T12:00:56;7.18;;;2.90;;
8177;SDS011;4130;48.740;9.132;2023-10-09T12:03:28;5.40;;;2.47;;
8177;SDS011;4130;48.740;9.132;2023-10-09T12:05:56;6.07;;;2.55;;
8177;SDS011;4130;48.740;9.132;2023-10-09T12:08:29;6.43;;;2.45;;
8177;SDS011;4130;48.740;9.132;2023-10-09T12:10:57;4.20;;;2.60;;
8177;SDS011;4130;48.740;9.132;2023-10-09T12:13:24;4.82;;;2.88;;
8177;SDS011;4130;48.740;9.132;2023-10-09T12:15:52;6.68;;;2.95;;
8177;SDS011;4130;48.740;9.132;2023-10-09T12:18:21;4.47;;;2.50;;
8177;SDS011;4130;48.740;9.132;2023-10-09T12:20:49;4.28;;;2.60;;
8177;SDS011;4130;48.740;9.132;2023-10-09T12:23:27;6.75;;;2.50;;
8177;SDS011;4130;48.740;9.132;2023-10-09T12:25:54;7.03;;;3.17;;
8177;SDS011;4130;48.740;9.132;2023-10-09T12:28:21;4.47;;;2.80;;
8177;SDS011;4130;48.740;9.132;2023-10-09T12:30:49;4.53;;;3.05;;
8177;SDS011;4130;48.740;9.132;2023-10-09T12:33:16;4.00;;;2.90;;
8177;SDS011;4130;48.740;9.132;2023-10-09T12:35:46;5.57;;;2.95;;
8177;SDS011;4130;48.740;9.132;2023-10-09T12:38:13;6.32;;;3.03;;
8177;SDS011;4130;48.740;9.132;2023-10-09T12:40:44;5.40;;;2.97;;
8177;SDS011;4130;48.740;9.132;2023-10-09T12:43:16;5.38;;;2.97;;
8177;SDS011;4130;48.740;9.132;2023-10-09T12:45:44;7.78;;;3.03;;
8177;SDS011;4130;48.740;9.132;2023-10-09T12:48:11;7.95;;;3.05;;
8177;SDS011;4130;48.740;9.132;2023-10-09T12:50:39;5.45;;;2.80;;
8177;SDS011;4130;48.740;9.132;2023-10-09T12:53:10;6.60;;;2.80;;
8177;SDS011;4130;48.740;9.132;2023-10-09T12:55:43;4.55;;;2.50;;
8177;SDS011;4130;48.740;9.132;2023-10-09T12:58:10;7.20;;;2.90;;
8177;SDS011;4130;48.740;9.132;2023-10-09T13:00:41;5.50;;;2.50;;
8177;SDS011;4130;48.740;9.132;2023-10-09T13:03:13;5.30;;;2.60;;
8177;SDS011;4130;48.740;9.132;2023-10-09T13:05:46;4.32;;;2.50;;
8177;SDS011;4130;48.740;9.132;2023-10-09T13:08:23;7.25;;;2.90;;
8177;SDS011;4130;48.740;9.132;2023-10-09T13:11:01;4.78;;;3.15;;
8177;SDS011;4130;48.740;9.132;2023-10-09T13:13:35;4.85;;;2.80;;
8177;SDS011;4130;48.740;9.132;2023-10-09T13:16:07;6.25;;;3.15;;
8177;SDS011;4130;48.740;9.132;2023-10-09T13:18:36;7.80;;;3.13;;
8177;SDS011;4130;48.740;9.132;2023-10-09T13:21:05;8.82;;;3.08;;
8177;SDS011;4130;48.740;9.132;2023-10-09T13:23:33;7.97;;;2.97;;
8177;SDS011;4130;48.740;9.132;2023-10-09T13:26:07;5.32;;;3.17;;
8177;SDS011;4130;48.740;9.132;2023-10-09T13:28:46;9.27;;;3.25;;
8177;SDS011;4130;48.740;9.132;2023-10-09T13:31:15;4.78;;;2.97;;
8177;SDS011;4130;48.740;9.132;2023-10-09T13:33:43;5.50;;;3.33;;
8177;SDS011;4130;48.740;9.132;2023-10-09T13:36:11;5.50;;;3.00;;
8177;SDS011;4130;48.740;9.132;2023-10-09T13:38:53;8.38;;;3.53;;
8177;SDS011;4130;48.740;9.132;2023-10-09T13:41:21;5.82;;;3.25;;
8177;SDS011;4130;48.740;9.132;2023-10-09T13:43:51;7.43;;;3.33;;
8177;SDS011;4130;48.740;9.132;2023-10-09T13:46:18;5.50;;;3.17;;
8177;SDS011;4130;48.740;9.132;2023-10-09T13:48:45;6.20;;;2.83;;
8177;SDS011;4130;48.740;9.132;2023-10-09T13:51:14;7.13;;;3.58;;
8177;SDS011;4130;48.740;9.132;2023-10-09T13:53:43;5.45;;;3.22;;
8177;SDS011;4130;48.740;9.132;2023-10-09T13:56:13;6.45;;;2.67;;
8177;SDS011;4130;48.740;9.132;2023-10-09T13:58:43;6.60;;;3.20;;
8177;SDS011;4130;48.740;9.132;2023-10-09T14:01:11;5.65;;;3.10;;
8177;SDS011;4130;48.740;9.132;2023-10-09T14:03:46;5.10;;;3.17;;
8177;SDS011;4130;48.740;9.132;2023-10-09T14:06:15;4.75;;;3.05;;
8177;SDS011;4130;48.740;9.132;2023-10-09T14:08:47;5.30;;;3.10;;
8177;SDS011;4130;48.740;9.132;2023-10-09T14:11:15;5.75;;;3.50;;
8177;SDS011;4130;48.740;9.132;2023-10-09T14:13:42;6.50;;;2.95;;
8177;SDS011;4130;48.740;9.132;2023-10-09T14:16:09;5.65;;;3.30;;
8177;SDS011;4130;48.740;9.132;2023-10-09T14:18:49;7.03;;;3.17;;
8177;SDS011;4130;48.740;9.132;2023-10-09T14:21:18;10.40;;;3.75;;
8177;SDS011;4130;48.740;9.132;2023-10-09T14:23:46;5.30;;;3.35;;
8177;SDS011;4130;48.740;9.132;2023-10-09T14:26:15;6.30;;;2.90;;
8177;SDS011;4130;48.740;9.132;2023-10-09T14:28:44;6.63;;;3.47;;
8177;SDS011;4130;48.740;9.132;2023-10-09T14:31:13;4.93;;;2.92;;
8177;SDS011;4130;48.740;9.132;2023-10-09T14:33:47;5.20;;;3.08;;
8177;SDS011;4130;48.740;9.132;2023-10-09T14:36:16;5.97;;;3.10;;
8177;SDS011;4130;48.740;9.132;2023-10-09T14:38:44;7.65;;;3.72;;
8177;SDS011;4130;48.740;9.132;2023-10-09T14:41:12;6.22;;;3.60;;
8177;SDS011;4130;48.740;9.132;2023-10-09T14:43:40;5.50;;;3.08;;
8177;SDS011;4130;48.740;9.132;2023-10-09T14:46:12;5.40;;;3.45;;
8177;SDS011;4130;48.740;9.132;2023-10-09T14:48:39;6.57;;;2.80;;
8177;SDS011;4130;48.740;9.132;2023-10-09T14:51:11;5.68;;;3.20;;
8177;SDS011;4130;48.740;9.132;2023-10-09T14:53:38;5.20;;;3.22;;
8177;SDS011;4130;48.740;9.132;2023-10-09T14:56:05;5.35;;;3.50;;
8177;SDS011;4130;48.740;9.132;2023-10-09T14:58:34;4.07;;;2.83;;
8177;SDS011;4130;48.740;9.132;2023-10-09T15:01:09;6.15;;;3.63;;
8177;SDS011;4130;48.740;9.132;2023-10-09T15:03:38;5.47;;;3.17;;
8177;SDS011;4130;48.740;9.132;2023-10-09T15:06:05;5.53;;;2.80;;
8177;SDS011;4130;48.740;9.132;2023-10-09T15:08:37;5.78;;;3.05;;
8177;SDS011;4130;48.740;9.132;2023-10-09T15:11:06;5.72;;;3.38;;
8177;SDS011;4130;48.740;9.132;2023-10-09T15:13:33;4.70;;;3.10;;
8177;SDS011;4130;48.740;9.132;2023-10-09T15:16:04;7.63;;;3.33;;
8177;SDS011;4130;48.740;9.132;2023-10-09T15:18:33;5.95;;;3.30;;
8177;SDS011;4130;48.740;9.132;2023-10-09T15:21:02;5.43;;;3.20;;
8177;SDS011;4130;48.740;9.132;2023-10-09T15:23:31;7.13;;;3.38;;
8177;SDS011;4130;48.740;9.132;2023-10-09T15:25:58;8.95;;;3.55;;
8177;SDS011;4130;48.740;9.132;2023-10-09T15:28:26;7.85;;;3.63;;
8177;SDS011;4130;48.740;9.132;2023-10-09T15:30:57;6.97;;;3.65;;
8177;SDS011;4130;48.740;9.132;2023-10-09T15:33:24;6.28;;;3.08;;
8177;SDS011;4130;48.740;9.132;2023-10-09T15:35:57;9.05;;;3.72;;
8177;SDS011;4130;48.740;9.132;2023-10-09T15:38:24;5.75;;;3.13;;
8177;SDS011;4130;48.740;9.132;2023-10-09T15:40:54;5.10;;;2.85;;
8177;SDS011;4130;48.740;9.132;2023-10-09T15:43:21;7.47;;;3.72;;
8177;SDS011;4130;48.740;9.132;2023-10-09T15:45:50;11.68;;;3.67;;
8177;SDS011;4130;48.740;9.132;2023-10-09T15:48:17;7.68;;;3.50;;
8177;SDS011;4130;48.740;9.132;2023-10-09T15:50:46;8.02;;;3.45;;
8177;SDS011;4130;48.740;9.132;2023-10-09T15:53:17;6.10;;;3.20;;
8177;SDS011;4130;48.740;9.132;2023-10-09T15:55:44;8.05;;;3.45;;
8177;SDS011;4130;48.740;9.132;2023-10-09T15:58:11;7.25;;;3.80;;
8177;SDS011;4130;48.740;9.132;2023-10-09T16:00:42;10.05;;;3.75;;
8177;SDS011;4130;48.740;9.132;2023-10-09T16:03:10;8.38;;;4.10;;
8177;SDS011;4130;48.740;9.132;2023-10-09T16:05:39;8.05;;;3.42;;
8177;SDS011;4130;48.740;9.132;2023-10-09T16:08:06;7.10;;;3.53;;
8177;SDS011;4130;48.740;9.132;2023-10-09T16:10:34;7.90;;;3.35;;
8177;SDS011;4130;48.740;9.132;2023-10-09T16:13:01;7.38;;;3.40;;
8177;SDS011;4130;48.740;9.132;2023-10-09T16:15:29;9.93;;;3.80;;
8177;SDS011;4130;48.740;9.132;2023-10-09T16:17:57;7.10;;;3.45;;
8177;SDS011;4130;48.740;9.132;2023-10-09T16:20:28;9.18;;;3.75;;
8177;SDS011;4130;48.740;9.132;2023-10-09T16:22:58;11.43;;;4.18;;
8177;SDS011;4130;48.740;9.132;2023-10-09T16:25:32;10.85;;;4.90;;
8177;SDS011;4130;48.740;9.132;2023-10-09T16:28:11;15.77;;;4.60;;
8177;SDS011;4130;48.740;9.132;2023-10-09T17:07:45;20.85;;;8.75;;
8177;SDS011;4130;48.740;9.132;2023-10-09T17:10:14;7.40;;;4.60;;